Time;durP1;ratioP1;P1;durP2;ratioP2;P2;SDS_P1;SDS_P2;PMS_P1;PMS_P2;Temp;Humidity;BMP_temperature;BMP_pressure;BME280_temperature;BME280_humidity;BME280_pressure;Samples;Min_cycle;Max_cycle;Signal;HPM_P1;HPM_P2
2022/05/01 00:01:39;;;;;;;20.17;16.17;;;5.40;99.90;;;;;;5030480;28;20046;-83
2022/05/01 00:04:05;;;;;;;17.38;14.70;;;5.20;99.90;;;;;;5029684;28;20100;-80
2022/05/01 00:06:34;;;;;;;16.25;13.80;;;5.20;99.90;;;;;;5028553;28;20044;-81
2022/05/01 00:09:03;;;;;;;21.52;15.18;;;5.10;99.90;;;;;;5030875;28;20120;-79
2022/05/01 00:11:30;;;;;;;20.60;14.80;;;5.10;99.90;;;;;;5029599;28;20057;-81
2022/05/01 00:13:59;;;;;;;18.13;14.48;;;5.00;99.90;;;;;;5031872;28;20391;-81
2022/05/01 00:16:25;;;;;;;22.98;16.02;;;4.90;99.90;;;;;;5024227;28;20195;-82
2022/05/01 00:18:51;;;;;;;20.63;16.30;;;5.00;99.90;;;;;;5030366;28;20132;-81
2022/05/01 00:21:17;;;;;;;23.58;16.42;;;4.90;99.90;;;;;;5023755;28;20133;-82
2022/05/01 00:23:43;;;;;;;22.63;15.07;;;5.00;99.90;;;;;;5029084;28;20535;-82
2022/05/01 00:26:08;;;;;;;20.75;15.93;;;4.90;99.90;;;;;;5026698;28;20102;-82
2022/05/01 00:28:38;;;;;;;19.85;15.57;;;4.90;99.90;;;;;;5028782;28;20042;-82
2022/05/01 00:31:05;;;;;;;19.80;15.68;;;4.90;99.90;;;;;;5026923;28;20052;-81
2022/05/01 00:36:26;;;;;;;19.00;14.07;;;4.80;99.90;;;;;;5027266;28;20049;-77
2022/05/01 00:38:56;;;;;;;19.77;14.10;;;4.80;99.90;;;;;;5030078;28;20041;-81
2022/05/01 00:41:23;;;;;;;20.35;15.10;;;4.70;99.90;;;;;;5028572;28;20071;-82
2022/05/01 00:44:16;;;;;;;20.10;13.95;;;4.70;99.90;;;;;;5029384;28;20388;-78
2022/05/01 00:46:47;;;;;;;17.48;13.98;;;4.70;99.90;;;;;;5024108;28;20057;-81
2022/05/01 00:49:17;;;;;;;19.60;15.70;;;4.70;99.90;;;;;;5029150;28;20041;-82
2022/05/01 00:52:05;;;;;;;19.95;13.82;;;4.60;99.90;;;;;;5028275;28;20049;-82
2022/05/01 00:54:32;;;;;;;19.27;15.82;;;4.60;99.90;;;;;;5027382;28;20041;-80
2022/05/01 00:57:01;;;;;;;18.42;14.23;;;4.50;99.90;;;;;;5028077;28;20045;-82
2022/05/01 00:59:28;;;;;;;21.03;14.60;;;4.60;99.90;;;;;;5027005;28;20049;-81
2022/05/01 01:01:54;;;;;;;24.70;17.02;;;4.50;99.90;;;;;;5027683;28;20402;-79
2022/05/01 01:04:20;;;;;;;18.73;14.57;;;4.60;99.90;;;;;;5028638;28;20045;-79
2022/05/01 01:06:46;;;;;;;17.27;14.40;;;4.40;99.90;;;;;;5025921;28;20533;-82
2022/05/01 01:09:12;;;;;;;23.23;15.32;;;4.50;99.90;;;;;;5029783;28;20053;-80
2022/05/01 01:11:38;;;;;;;19.10;15.18;;;4.40;99.90;;;;;;5029932;28;20064;-81
2022/05/01 01:14:05;;;;;;;22.25;15.77;;;4.40;99.90;;;;;;5028498;28;20125;-80
2022/05/01 01:16:35;;;;;;;19.85;15.60;;;4.30;99.90;;;;;;5025656;28;20041;-81
2022/05/01 01:19:06;;;;;;;22.83;15.80;;;4.30;99.90;;;;;;5029297;28;20088;-81
2022/05/01 01:21:32;;;;;;;20.10;16.83;;;4.30;99.90;;;;;;5027473;28;20045;-81
2022/05/01 01:24:01;;;;;;;18.73;14.02;;;4.30;99.90;;;;;;5027857;28;20042;-81
2022/05/01 01:26:28;;;;;;;22.13;16.50;;;4.20;99.90;;;;;;5025461;28;20435;-82
2022/05/01 01:28:55;;;;;;;18.05;15.65;;;4.10;99.90;;;;;;5027922;28;20399;-78
2022/05/01 01:31:41;;;;;;;20.48;16.58;;;4.10;99.90;;;;;;5015132;28;20063;-82
2022/05/01 01:34:11;;;;;;;25.60;16.33;;;4.00;99.90;;;;;;5015902;28;20065;-82
2022/05/01 01:36:38;;;;;;;20.80;15.93;;;4.10;99.90;;;;;;5022022;28;20041;-81
2022/05/01 01:39:05;;;;;;;18.10;14.95;;;4.00;99.90;;;;;;5029065;28;20046;-80
2022/05/01 01:41:32;;;;;;;18.33;14.95;;;4.00;99.90;;;;;;5028006;28;20478;-82
2022/05/01 01:43:59;;;;;;;18.33;13.32;;;4.10;99.90;;;;;;5025690;28;20052;-82
2022/05/01 01:46:26;;;;;;;27.90;15.95;;;4.00;99.90;;;;;;5026907;28;20050;-83
2022/05/01 01:48:52;;;;;;;16.25;13.48;;;4.00;99.90;;;;;;5029126;28;20481;-81
2022/05/01 01:51:19;;;;;;;18.50;14.15;;;4.00;99.90;;;;;;5031994;28;20433;-83
2022/05/01 01:53:44;;;;;;;32.70;16.38;;;3.90;99.90;;;;;;5029953;28;20438;-82
2022/05/01 01:56:11;;;;;;;18.00;13.68;;;3.90;99.90;;;;;;5027748;28;20056;-82
2022/05/01 01:58:38;;;;;;;19.48;13.35;;;3.90;99.90;;;;;;5028986;28;20037;-81
2022/05/01 02:01:06;;;;;;;18.67;13.65;;;3.90;99.90;;;;;;5026486;28;20038;-82
2022/05/01 02:03:33;;;;;;;16.83;14.38;;;3.90;99.90;;;;;;5026626;28;20518;-82
2022/05/01 02:05:59;;;;;;;18.65;14.68;;;4.00;99.90;;;;;;5026588;28;20455;-81
2022/05/01 02:08:25;;;;;;;16.90;15.20;;;4.10;99.90;;;;;;5026645;28;20430;-81
2022/05/01 02:10:51;;;;;;;15.68;13.68;;;4.20;99.90;;;;;;5027152;28;21318;-83
2022/05/01 02:13:17;;;;;;;14.52;13.00;;;4.20;99.90;;;;;;5027376;28;20435;-81
2022/05/01 02:15:43;;;;;;;16.00;12.40;;;4.20;99.90;;;;;;5024128;28;20811;-81
2022/05/01 02:18:09;;;;;;;17.38;14.07;;;4.20;99.90;;;;;;5027444;28;20438;-83
2022/05/01 02:23:21;;;;;;;14.57;12.73;;;4.20;99.90;;;;;;5014869;28;20427;-80
2022/05/01 02:25:48;;;;;;;15.07;13.40;;;4.20;99.90;;;;;;5022807;28;20453;-83
2022/05/01 02:28:14;;;;;;;17.35;14.50;;;4.30;99.90;;;;;;5030578;28;20433;-81
2022/05/01 02:30:40;;;;;;;19.07;15.53;;;3.90;99.90;;;;;;5011185;28;20803;-79
2022/05/01 02:33:07;;;;;;;17.92;15.43;;;4.10;99.90;;;;;;5028425;28;20446;-81
2022/05/01 02:35:34;;;;;;;17.30;15.50;;;4.10;99.90;;;;;;5029039;28;20446;-81
2022/05/01 02:38:01;;;;;;;21.25;16.80;;;4.10;99.90;;;;;;5026803;28;20827;-82
2022/05/01 02:40:29;;;;;;;19.07;15.80;;;4.10;99.90;;;;;;5034665;28;20571;-83
2022/05/01 02:42:58;;;;;;;20.30;16.70;;;4.20;99.90;;;;;;5029544;28;20423;-82
2022/05/01 02:45:24;;;;;;;22.30;17.83;;;3.90;99.90;;;;;;5025978;28;20426;-82
2022/05/01 02:47:50;;;;;;;32.40;23.42;;;3.80;99.90;;;;;;5026574;28;20462;-78
2022/05/01 02:50:15;;;;;;;25.10;21.77;;;3.60;99.90;;;;;;5029700;28;20456;-82
2022/05/01 02:52:41;;;;;;;24.43;20.23;;;3.50;99.90;;;;;;5030233;28;20430;-82
2022/05/01 02:55:07;;;;;;;29.47;24.23;;;3.50;99.90;;;;;;5031543;28;21076;-80
2022/05/01 02:57:33;;;;;;;26.77;23.27;;;3.60;99.90;;;;;;5029269;28;20419;-82
2022/05/01 02:59:59;;;;;;;27.73;23.33;;;3.50;99.90;;;;;;5028961;28;21093;-83
2022/05/01 03:02:24;;;;;;;21.55;19.30;;;3.60;99.90;;;;;;5031072;28;20453;-82
2022/05/01 03:04:50;;;;;;;21.92;17.88;;;3.50;99.90;;;;;;5029866;28;20427;-81
2022/05/01 03:07:15;;;;;;;20.10;18.00;;;3.50;99.90;;;;;;5029782;28;20525;-81
2022/05/01 03:09:41;;;;;;;22.67;18.60;;;3.60;99.90;;;;;;5030520;28;20428;-81
2022/05/01 03:12:08;;;;;;;25.00;19.08;;;3.70;99.90;;;;;;5014322;28;22488;-80
2022/05/01 03:14:33;;;;;;;21.58;19.13;;;3.80;99.90;;;;;;5027139;28;20467;-81
2022/05/01 03:16:59;;;;;;;23.45;17.90;;;3.80;99.90;;;;;;5029308;28;20471;-81
2022/05/01 03:22:25;;;;;;;21.35;18.00;;;3.90;99.90;;;;;;4964869;28;20424;-82
2022/05/01 03:24:51;;;;;;;23.08;16.67;;;3.90;99.90;;;;;;5021733;28;20457;-80
2022/05/01 03:27:17;;;;;;;18.53;16.17;;;3.90;99.90;;;;;;5030291;28;20796;-80
2022/05/01 03:30:15;;;;;;;17.92;15.98;;;3.90;99.90;;;;;;5018210;28;20437;-80
2022/05/01 03:32:28;;;;;;;17.60;15.43;;;3.80;99.90;;;;;;5027802;28;20431;-80
2022/05/01 03:34:55;;;;;;;15.25;13.63;;;3.80;99.90;;;;;;5012524;28;20470;-81
2022/05/01 03:37:21;;;;;;;16.35;14.65;;;3.70;99.90;;;;;;5029915;28;20427;-81
2022/05/01 03:39:47;;;;;;;17.30;13.93;;;3.70;99.90;;;;;;5030192;28;20481;-81
2022/05/01 03:42:13;;;;;;;14.18;12.73;;;3.70;99.90;;;;;;5022755;28;20490;-82
2022/05/01 03:44:38;;;;;;;13.63;12.30;;;3.70;99.90;;;;;;5026087;28;20920;-76
2022/05/01 03:47:04;;;;;;;16.50;13.70;;;3.60;99.90;;;;;;5031160;28;20429;-81
2022/05/01 03:49:30;;;;;;;14.30;12.80;;;3.60;99.90;;;;;;5030170;28;20435;-81
2022/05/01 03:51:56;;;;;;;16.00;14.30;;;3.50;99.90;;;;;;5026923;28;20423;-81
2022/05/01 03:54:22;;;;;;;15.32;13.65;;;3.50;99.90;;;;;;5029801;28;20423;-81
2022/05/01 03:56:47;;;;;;;14.83;13.23;;;3.50;99.90;;;;;;5030082;28;20419;-82
2022/05/01 03:59:13;;;;;;;14.07;12.57;;;3.50;99.90;;;;;;5027136;28;20827;-81
2022/05/01 04:01:39;;;;;;;14.17;12.67;;;3.60;99.90;;;;;;5025799;28;20843;-77
2022/05/01 04:04:05;;;;;;;14.05;12.65;;;3.40;99.90;;;;;;5028972;28;20485;-83
2022/05/01 04:06:30;;;;;;;15.23;11.50;;;3.50;99.90;;;;;;5028831;28;20476;-81
2022/05/01 04:08:56;;;;;;;13.67;12.37;;;3.40;99.90;;;;;;5029455;28;20507;-81
2022/05/01 04:11:22;;;;;;;14.43;12.90;;;3.30;99.90;;;;;;5027920;28;20506;-81
2022/05/01 04:13:48;;;;;;;13.25;11.85;;;3.40;99.90;;;;;;5026061;28;20443;-81
2022/05/01 04:16:14;;;;;;;14.23;12.82;;;3.30;99.90;;;;;;5029681;28;20491;-80
2022/05/01 04:18:40;;;;;;;14.32;12.52;;;3.20;99.90;;;;;;5028515;28;20447;-80
2022/05/01 04:21:07;;;;;;;13.13;11.80;;;3.30;99.90;;;;;;5032713;28;20892;-81
2022/05/01 04:23:32;;;;;;;16.17;13.00;;;3.40;99.90;;;;;;5026471;28;20439;-81
2022/05/01 04:25:58;;;;;;;15.45;13.30;;;3.30;99.90;;;;;;5028222;28;20434;-82
2022/05/01 04:28:24;;;;;;;14.40;12.90;;;3.40;99.90;;;;;;5024564;28;20559;-80
2022/05/01 04:30:50;;;;;;;14.88;13.27;;;3.50;99.90;;;;;;5022635;28;20417;-76
2022/05/01 04:33:16;;;;;;;13.68;12.25;;;3.60;99.90;;;;;;5016759;28;20433;-82
2022/05/01 04:35:47;;;;;;;14.90;13.30;;;3.70;99.90;;;;;;5020797;28;20498;-82
2022/05/01 04:38:15;;;;;;;11.55;10.43;;;3.70;99.90;;;;;;5017374;28;20429;-80
2022/05/01 04:40:45;;;;;;;13.15;11.68;;;3.80;99.90;;;;;;5027886;28;21341;-81
2022/05/01 04:43:19;;;;;;;13.90;12.50;;;3.90;99.90;;;;;;5026028;28;20435;-81
2022/05/01 04:45:47;;;;;;;14.77;13.27;;;4.40;99.90;;;;;;5012816;28;20430;-82
2022/05/01 04:48:13;;;;;;;11.53;10.33;;;4.70;99.90;;;;;;5028976;28;20431;-82
2022/05/01 04:50:40;;;;;;;12.63;11.32;;;4.40;99.90;;;;;;5029525;28;20423;-77
2022/05/01 04:53:12;;;;;;;12.38;11.18;;;4.60;99.90;;;;;;5027039;28;20430;-81
2022/05/01 04:55:43;;;;;;;12.15;10.95;;;4.40;99.90;;;;;;5022086;28;20423;-82
2022/05/01 04:58:10;;;;;;;12.98;11.63;;;4.60;99.90;;;;;;5027484;28;20435;-81
2022/05/01 05:00:37;;;;;;;12.00;10.85;;;4.70;99.90;;;;;;5026848;28;20855;-81
2022/05/01 05:03:03;;;;;;;13.97;12.57;;;4.60;99.90;;;;;;5008449;28;20477;-78
2022/05/01 05:05:32;;;;;;;14.73;12.52;;;4.60;99.90;;;;;;5028678;28;20824;-81
2022/05/01 05:10:45;;;;;;;13.00;11.70;;;4.80;99.90;;;;;;5015368;28;20423;-81
2022/05/01 05:13:11;;;;;;;12.87;11.57;;;4.80;99.90;;;;;;5027010;28;20446;-81
2022/05/01 05:15:36;;;;;;;13.17;11.80;;;4.50;99.90;;;;;;5026872;28;20828;-81
2022/05/01 05:18:02;;;;;;;11.90;10.70;;;4.30;99.90;;;;;;5026132;28;20465;-80
2022/05/01 05:20:27;;;;;;;12.43;11.20;;;4.30;99.90;;;;;;5028076;28;20795;-81
2022/05/01 05:22:53;;;;;;;13.97;12.53;;;4.50;99.90;;;;;;5022552;28;20433;-80
2022/05/01 05:25:20;;;;;;;12.60;11.50;;;4.60;99.90;;;;;;5025306;28;20426;-80
2022/05/01 05:27:47;;;;;;;13.00;11.70;;;4.60;99.90;;;;;;5027403;28;20423;-80
2022/05/01 05:30:13;;;;;;;13.60;12.18;;;4.60;99.90;;;;;;5027402;28;20800;-79
2022/05/01 05:32:39;;;;;;;12.48;11.38;;;4.80;99.90;;;;;;5025060;28;20434;-82
2022/05/01 05:35:06;;;;;;;12.52;11.20;;;5.30;99.90;;;;;;5025084;28;20410;-81
2022/05/01 05:37:32;;;;;;;8.60;7.82;;;5.30;99.90;;;;;;5028725;28;20761;-81
2022/05/01 05:39:57;;;;;;;7.90;7.15;;;5.30;99.90;;;;;;5026687;28;20438;-82
2022/05/01 05:42:23;;;;;;;9.68;8.77;;;5.50;99.90;;;;;;5027071;28;21042;-82
2022/05/01 05:44:49;;;;;;;10.02;9.02;;;5.20;99.90;;;;;;5027289;28;20483;-81
2022/05/01 05:47:14;;;;;;;11.77;10.10;;;5.20;99.90;;;;;;5028844;28;20429;-80
2022/05/01 05:49:40;;;;;;;12.15;10.48;;;5.40;99.90;;;;;;5026856;28;20435;-80
2022/05/01 05:52:06;;;;;;;11.13;10.02;;;5.40;99.90;;;;;;5028085;28;20770;-80
2022/05/01 05:54:32;;;;;;;13.95;10.85;;;5.60;99.90;;;;;;5025700;28;20836;-83
2022/05/01 05:56:58;;;;;;;13.55;12.15;;;5.70;99.90;;;;;;5028338;28;20426;-81
2022/05/01 05:59:24;;;;;;;16.85;14.38;;;5.80;99.90;;;;;;5025959;28;20431;-83
2022/05/01 06:01:49;;;;;;;16.13;14.47;;;6.00;99.90;;;;;;5028570;28;20508;-77
2022/05/01 06:04:15;;;;;;;14.27;12.87;;;6.10;99.90;;;;;;5026620;28;20435;-83
2022/05/01 06:06:41;;;;;;;15.37;13.83;;;6.20;99.90;;;;;;5026165;28;20892;-82
2022/05/01 06:09:08;;;;;;;15.43;12.77;;;6.40;99.90;;;;;;5028333;28;20427;-79
2022/05/01 06:11:35;;;;;;;15.00;12.70;;;6.40;99.90;;;;;;5028731;28;20781;-85
2022/05/01 06:14:02;;;;;;;16.40;14.17;;;6.50;99.90;;;;;;5026159;28;20485;-82
2022/05/01 06:16:27;;;;;;;14.77;13.38;;;6.60;99.90;;;;;;5025254;28;20427;-82
2022/05/01 06:18:53;;;;;;;15.17;13.13;;;6.70;99.90;;;;;;5027252;28;20920;-83
2022/05/01 06:21:19;;;;;;;13.10;11.80;;;6.80;99.90;;;;;;5028781;28;20480;-81
2022/05/01 06:23:47;;;;;;;14.25;12.77;;;6.90;99.90;;;;;;5027352;28;20422;-81
2022/05/01 06:26:13;;;;;;;14.35;12.00;;;7.20;99.90;;;;;;5018490;28;20419;-78
2022/05/01 06:28:38;;;;;;;14.60;9.90;;;7.30;99.90;;;;;;5030735;28;20507;-74
2022/05/01 06:31:04;;;;;;;12.10;10.90;;;7.20;99.90;;;;;;5031452;28;20828;-78
2022/05/01 06:33:33;;;;;;;12.10;10.90;;;7.40;99.90;;;;;;5030927;28;20452;-77
2022/05/01 06:35:58;;;;;;;12.50;11.30;;;7.70;99.90;;;;;;5030301;28;20761;-79
2022/05/01 06:38:24;;;;;;;10.88;9.73;;;7.90;99.90;;;;;;5030026;28;20441;-75
2022/05/01 06:40:50;;;;;;;9.70;8.70;;;8.10;99.90;;;;;;5034307;28;20485;-77
2022/05/01 06:43:17;;;;;;;10.02;8.65;;;8.00;99.90;;;;;;5042987;28;20069;-80
2022/05/01 06:45:43;;;;;;;10.25;9.00;;;8.10;99.90;;;;;;5003009;28;20064;-78
2022/05/01 06:48:10;;;;;;;9.27;7.38;;;8.20;99.90;;;;;;5012087;28;20488;-77
2022/05/01 06:50:36;;;;;;;10.38;9.23;;;8.50;99.90;;;;;;5025933;28;20514;-79
2022/05/01 06:53:02;;;;;;;9.82;7.45;;;9.00;99.90;;;;;;5032691;28;20052;-79
2022/05/01 06:55:28;;;;;;;8.35;7.35;;;9.00;99.90;;;;;;5029290;28;20045;-77
2022/05/01 06:57:54;;;;;;;17.77;8.82;;;9.00;99.90;;;;;;5032255;28;20064;-77
2022/05/01 07:00:20;;;;;;;8.50;7.70;;;9.60;99.90;;;;;;5025739;28;20123;-74
2022/05/01 07:02:50;;;;;;;8.70;7.18;;;10.80;99.90;;;;;;5029034;28;20033;-77
2022/05/01 07:05:17;;;;;;;9.35;7.15;;;11.40;99.90;;;;;;5025890;28;20132;-76
2022/05/01 07:07:42;;;;;;;9.10;6.85;;;12.10;99.90;;;;;;5030620;28;20447;-77
2022/05/01 07:10:09;;;;;;;8.48;6.57;;;12.70;99.90;;;;;;5027721;28;20124;-78
2022/05/01 07:12:35;;;;;;;8.52;6.70;;;13.20;99.90;;;;;;5029018;28;20506;-79
2022/05/01 07:15:02;;;;;;;8.23;7.40;;;12.90;99.90;;;;;;5027812;28;20526;-77
2022/05/01 07:17:27;;;;;;;8.38;7.57;;;12.70;99.90;;;;;;5029428;28;20430;-77
2022/05/01 07:19:53;;;;;;;9.27;7.13;;;13.40;99.90;;;;;;5028480;28;20427;-78
2022/05/01 07:22:19;;;;;;;7.13;5.80;;;13.50;99.90;;;;;;5026253;28;20466;-78
2022/05/01 07:24:44;;;;;;;8.20;6.20;;;12.80;99.90;;;;;;5022999;28;20465;-77
2022/05/01 07:27:10;;;;;;;8.80;6.37;;;12.40;99.90;;;;;;5023516;28;20473;-77
2022/05/01 07:29:36;;;;;;;7.65;6.28;;;12.00;99.90;;;;;;5022986;28;20962;-77
2022/05/01 07:32:03;;;;;;;6.53;5.80;;;11.70;99.90;;;;;;5022333;28;20462;-78
2022/05/01 07:34:28;;;;;;;8.90;5.25;;;11.50;99.90;;;;;;5020670;28;20510;-76
2022/05/01 07:36:55;;;;;;;9.50;6.07;;;10.70;99.90;;;;;;5024062;28;20428;-77
2022/05/01 07:39:20;;;;;;;7.57;5.53;;;10.50;99.90;;;;;;5023108;28;20435;-77
2022/05/01 07:41:46;;;;;;;6.95;6.25;;;10.30;99.90;;;;;;5029513;28;20515;-77
2022/05/01 07:44:12;;;;;;;9.10;6.18;;;10.30;99.90;;;;;;5027779;28;20469;-77
2022/05/01 07:46:38;;;;;;;12.75;7.28;;;10.30;99.90;;;;;;5027839;28;20455;-76
2022/05/01 07:49:05;;;;;;;12.80;6.63;;;10.50;99.90;;;;;;5028851;28;20442;-77
2022/05/01 07:51:31;;;;;;;8.35;6.32;;;10.30;99.90;;;;;;5028604;28;20465;-77
2022/05/01 07:53:58;;;;;;;8.77;6.35;;;10.30;99.90;;;;;;5028312;28;20467;-78
2022/05/01 07:56:25;;;;;;;7.50;6.78;;;10.50;99.90;;;;;;5029048;28;20773;-77
2022/05/01 07:58:50;;;;;;;9.55;6.68;;;10.30;99.90;;;;;;5028383;28;20489;-76
2022/05/01 08:01:16;;;;;;;7.27;6.47;;;10.90;99.90;;;;;;5027144;28;20423;-78
2022/05/01 08:06:26;;;;;;;10.88;6.47;;;11.20;99.90;;;;;;5025613;28;20502;-79
2022/05/01 08:08:51;;;;;;;7.47;5.47;;;11.30;99.90;;;;;;5028850;28;20510;-78
2022/05/01 08:11:17;;;;;;;7.77;5.70;;;11.40;99.90;;;;;;5028681;28;20905;-81
2022/05/01 08:13:42;;;;;;;7.13;5.23;;;11.20;99.90;;;;;;5025379;28;20515;-81
2022/05/01 08:16:08;;;;;;;10.57;6.47;;;11.30;99.90;;;;;;5027140;28;20952;-79
2022/05/01 08:21:18;;;;;;;10.65;7.40;;;11.10;99.90;;;;;;5027257;28;20489;-80
2022/05/01 08:23:44;;;;;;;7.85;7.05;;;11.50;99.90;;;;;;5027142;28;20542;-78
2022/05/01 08:26:11;;;;;;;8.83;6.33;;;11.90;99.90;;;;;;5026482;28;20435;-78
2022/05/01 08:28:38;;;;;;;8.67;6.87;;;11.90;99.90;;;;;;5014717;28;20512;-79
2022/05/01 08:31:05;;;;;;;6.78;5.82;;;11.90;99.90;;;;;;5020512;28;20522;-79
2022/05/01 08:33:32;;;;;;;6.78;6.07;;;12.10;99.90;;;;;;5026036;28;20443;-78
2022/05/01 08:35:59;;;;;;;9.60;6.35;;;12.40;99.90;;;;;;5027488;28;20426;-78
2022/05/01 08:38:24;;;;;;;7.38;5.13;;;12.30;99.90;;;;;;5008882;28;20421;-80
2022/05/01 08:40:51;;;;;;;9.43;5.88;;;12.40;99.90;;;;;;5024652;28;20434;-77
2022/05/01 08:43:18;;;;;;;7.10;5.90;;;12.40;99.90;;;;;;5024451;28;20983;-77
2022/05/01 08:45:53;;;;;;;8.88;5.93;;;12.30;99.90;;;;;;5022838;28;20419;-79
2022/05/01 08:48:24;;;;;;;6.30;5.60;;;12.30;99.90;;;;;;5025111;28;20439;-77
2022/05/01 08:50:52;;;;;;;6.33;5.13;;;12.00;99.90;;;;;;5026013;28;20528;-78
2022/05/01 08:53:18;;;;;;;13.40;6.85;;;11.70;99.90;;;;;;5027991;28;20450;-77
2022/05/01 08:55:45;;;;;;;7.90;5.50;;;12.00;99.90;;;;;;5026530;28;20506;-77
2022/05/01 08:58:11;;;;;;;7.38;4.93;;;12.00;99.90;;;;;;5028376;28;20426;-79
2022/05/01 09:00:37;;;;;;;7.38;5.28;;;12.00;99.90;;;;;;5026878;28;20477;-79
2022/05/01 09:03:05;;;;;;;7.90;5.67;;;12.00;99.90;;;;;;5027661;28;20435;-77
2022/05/01 09:05:31;;;;;;;9.27;4.95;;;12.30;99.90;;;;;;5026140;28;20415;-80
2022/05/01 09:07:57;;;;;;;6.70;5.25;;;12.50;99.90;;;;;;5028857;28;20415;-79
2022/05/01 09:10:26;;;;;;;8.30;5.78;;;12.60;99.90;;;;;;5024219;28;20938;-79
2022/05/01 09:12:53;;;;;;;6.53;5.13;;;12.70;99.90;;;;;;5024803;28;20435;-78
2022/05/01 09:15:29;;;;;;;7.70;4.97;;;13.00;99.90;;;;;;5025263;28;20848;-79
2022/05/01 09:18:02;;;;;;;6.43;5.30;;;13.10;99.90;;;;;;5027399;28;20999;-79
2022/05/01 09:20:28;;;;;;;8.83;5.20;;;13.30;99.90;;;;;;5026584;28;20513;-77
2022/05/01 09:22:55;;;;;;;7.37;5.20;;;13.20;99.90;;;;;;5027598;28;20498;-76
2022/05/01 09:25:23;;;;;;;7.15;5.00;;;13.30;99.90;;;;;;5026315;28;20411;-77
2022/05/01 09:27:49;;;;;;;6.32;4.85;;;13.10;99.90;;;;;;5025370;28;20503;-78
2022/05/01 09:30:23;;;;;;;6.85;4.70;;;13.40;99.90;;;;;;5026269;28;22300;-76
2022/05/01 09:32:50;;;;;;;7.38;5.20;;;13.40;99.90;;;;;;5021808;28;21295;-80
2022/05/01 09:35:29;;;;;;;6.70;5.13;;;13.50;99.90;;;;;;5018722;28;20912;-77
2022/05/01 09:38:23;;;;;;;6.78;5.72;;;13.50;99.90;;;;;;5016159;28;20510;-76
2022/05/01 09:40:55;;;;;;;7.15;5.50;;;13.50;99.90;;;;;;5021000;28;20433;-76
2022/05/01 09:43:44;;;;;;;8.05;5.60;;;13.40;99.90;;;;;;5019157;28;20437;-78
2022/05/01 09:46:27;;;;;;;7.45;5.53;;;13.50;99.90;;;;;;5020964;28;20427;-74
2022/05/01 09:49:03;;;;;;;7.78;5.05;;;13.70;99.90;;;;;;5023529;28;20488;-75
2022/05/01 09:51:34;;;;;;;6.18;4.90;;;13.90;99.90;;;;;;5020375;28;20488;-76
2022/05/01 09:54:02;;;;;;;6.88;6.05;;;14.00;99.90;;;;;;5021871;28;20481;-77
2022/05/01 09:56:28;;;;;;;12.15;4.78;;;14.30;99.90;;;;;;5025173;28;20046;-78
2022/05/01 09:58:58;;;;;;;7.03;5.38;;;14.20;99.90;;;;;;5023013;28;20041;-77
2022/05/01 10:01:24;;;;;;;7.15;4.90;;;13.80;99.90;;;;;;5025372;28;20113;-77
2022/05/01 10:03:52;;;;;;;8.55;5.28;;;12.70;99.90;;;;;;5025350;28;20056;-77
2022/05/01 10:06:19;;;;;;;6.35;4.35;;;13.00;99.90;;;;;;5024911;28;21036;-76
2022/05/01 10:08:46;;;;;;;6.13;4.65;;;13.20;99.90;;;;;;5027802;28;20049;-76
2022/05/01 10:11:17;;;;;;;5.47;4.03;;;13.40;99.90;;;;;;5026670;28;20111;-77
2022/05/01 10:13:46;;;;;;;7.05;4.35;;;13.40;99.90;;;;;;5025637;28;20053;-77
2022/05/01 10:16:15;;;;;;;6.57;4.85;;;13.30;99.90;;;;;;5026242;28;20097;-77
2022/05/01 10:18:42;;;;;;;6.18;4.07;;;13.30;99.90;;;;;;5027503;28;20046;-76
2022/05/01 10:21:08;;;;;;;5.45;4.75;;;13.30;99.90;;;;;;5026867;28;20388;-76
2022/05/01 10:23:34;;;;;;;5.57;4.32;;;12.90;99.90;;;;;;5025894;28;20087;-77
2022/05/01 10:26:22;;;;;;;5.82;5.15;;;13.20;99.90;;;;;;5027052;28;20033;-77
2022/05/01 10:28:50;;;;;;;7.07;5.22;;;13.20;99.90;;;;;;5026536;28;20052;-79
2022/05/01 10:34:44;;;;;;;6.20;5.00;;;13.10;99.90;;;;;;5026210;28;20049;-77
2022/05/01 10:37:28;;;;;;;5.80;4.63;;;12.90;99.90;;;;;;5024651;28;20087;-76
2022/05/01 10:39:54;;;;;;;7.28;4.82;;;13.20;99.90;;;;;;5027909;28;20048;-78
2022/05/01 10:42:33;;;;;;;9.35;5.63;;;13.40;99.90;;;;;;5027738;28;20045;-76
2022/05/01 10:44:59;;;;;;;8.35;4.72;;;13.30;99.90;;;;;;5025747;28;20519;-78
2022/05/01 10:47:36;;;;;;;8.50;4.80;;;13.50;99.90;;;;;;5026518;28;20045;-77
2022/05/01 10:50:10;;;;;;;10.25;5.40;;;13.80;99.90;;;;;;5027505;28;20034;-76
2022/05/01 10:53:05;;;;;;;6.47;4.85;;;13.90;99.90;;;;;;5026423;28;20076;-77
2022/05/01 10:55:51;;;;;;;5.28;4.38;;;13.60;99.90;;;;;;5026839;28;20128;-76
2022/05/01 10:58:27;;;;;;;7.75;4.40;;;14.10;99.90;;;;;;5023953;28;20098;-77
2022/05/01 11:00:54;;;;;;;6.65;4.80;;;14.40;99.90;;;;;;5027015;28;20033;-76
2022/05/01 11:03:30;;;;;;;;;;;14.30;99.90;;;;;;5028172;28;20045;-76
2022/05/01 11:06:01;;;;;;;;;;;14.20;99.90;;;;;;5026625;28;20384;-78
2022/05/01 11:08:28;;;;;;;;;;;13.60;99.90;;;;;;5024670;28;19928;-77
2022/05/01 11:10:56;;;;;;;;;;;13.10;99.90;;;;;;5027988;28;20434;-77
2022/05/01 11:13:29;;;;;;;;;;;13.30;99.90;;;;;;5028961;28;19921;-76
2022/05/01 11:15:55;;;;;;;;;;;13.80;99.90;;;;;;5029370;28;19927;-77
2022/05/01 11:18:26;;;;;;;;;;;13.70;99.90;;;;;;5030616;28;19996;-76
2022/05/01 11:20:52;;;;;;;;;;;13.80;99.90;;;;;;5026595;28;19964;-76
2022/05/01 11:23:31;;;;;;;;;;;13.90;99.90;;;;;;5024323;28;19964;-77
2022/05/01 11:26:17;;;;;;;;;;;14.00;99.90;;;;;;5014210;28;19921;-77
2022/05/01 11:28:55;;;;;;;;;;;14.10;99.90;;;;;;5028817;28;20008;-77
2022/05/01 11:31:36;;;;;;;;;;;14.40;99.90;;;;;;5029337;28;19928;-76
2022/05/01 11:34:17;;;;;;;;;;;14.30;99.90;;;;;;5029684;28;19921;-77
2022/05/01 11:36:53;;;;;;;;;;;14.30;99.90;;;;;;5029463;28;19921;-76
2022/05/01 11:39:22;;;;;;;;;;;14.40;99.90;;;;;;5029898;28;19925;-76
2022/05/01 11:42:00;;;;;;;;;;;14.20;99.90;;;;;;5029828;28;20397;-77
2022/05/01 11:44:27;;;;;;;;;;;14.50;99.90;;;;;;5029177;28;19920;-77
2022/05/01 11:46:52;;;;;;;;;;;14.00;99.90;;;;;;5027317;28;19984;-78
2022/05/01 11:49:18;;;;;;;;;;;14.50;99.90;;;;;;5029632;28;19921;-76
2022/05/01 11:51:45;;;;;;;;;;;14.90;99.90;;;;;;5029512;28;20282;-77
2022/05/01 11:54:10;;;;;;;;;;;14.90;99.90;;;;;;5030149;28;19921;-77
2022/05/01 12:04:49;;;;;;;;;;;14.20;99.90;;;;;;5028619;28;20012;-77
2022/05/01 12:07:18;;;;;;;;;;;14.00;99.90;;;;;;5030033;28;20008;-76
2022/05/01 12:09:46;;;;;;;;;;;13.70;99.90;;;;;;5028022;28;19921;-76
2022/05/01 12:12:13;;;;;;;;;;;13.40;99.90;;;;;;5027383;28;19921;-76
2022/05/01 12:14:40;;;;;;;;;;;13.80;99.90;;;;;;5028667;28;20000;-77
2022/05/01 12:17:08;;;;;;;;;;;14.00;99.90;;;;;;5028098;28;20000;-77
2022/05/01 12:19:35;;;;;;;;;;;13.70;99.90;;;;;;5029890;28;20004;-77
2022/05/01 12:22:00;;;;;;;;;;;13.40;99.90;;;;;;5003473;28;20016;-77
2022/05/01 12:24:26;;;;;;;;;;;13.60;99.90;;;;;;5028445;28;19925;-78
2022/05/01 12:26:52;;;;;;;;;;;13.70;99.90;;;;;;5027528;28;19921;-76
2022/05/01 12:29:18;;;;;;;;;;;13.80;99.90;;;;;;5028849;28;19967;-76
2022/05/01 12:31:53;;;;;;;;;;;13.90;99.90;;;;;;5025332;28;20370;-77
2022/05/01 12:34:23;;;;;;;;;;;14.00;99.90;;;;;;5014579;28;19928;-78
2022/05/01 12:36:54;;;;;;;;;;;14.00;99.90;;;;;;5027546;28;19991;-77
2022/05/01 12:39:21;;;;;;;;;;;13.60;99.90;;;;;;5030666;28;20011;-75
2022/05/01 12:45:03;;;;;;;;;;;13.80;99.90;;;;;;5022631;28;20371;-76
2022/05/01 12:47:33;;;;;;;;;;;13.70;99.90;;;;;;5022898;28;19928;-77
2022/05/01 12:49:58;;;;;;;;;;;13.40;99.90;;;;;;5026852;28;19925;-77
2022/05/01 12:52:34;;;;;;;;;;;13.50;99.90;;;;;;5030419;28;19921;-77
2022/05/01 12:55:19;;;;;;;;;;;13.90;99.90;;;;;;5030126;28;19921;-77
2022/05/01 12:57:51;;;;;;;;;;;14.40;99.90;;;;;;5029301;28;19921;-75
2022/05/01 13:00:37;;;;;;;;;;;14.30;99.90;;;;;;5030348;28;20348;-75
2022/05/01 13:03:11;;;;;;;;;;;14.70;99.90;;;;;;5026643;28;19921;-75
2022/05/01 13:05:38;;;;;;;;;;;15.20;99.90;;;;;;5028556;28;20198;-75
2022/05/01 13:08:14;;;;;;;;;;;15.10;99.90;;;;;;5030834;28;19912;-75
2022/05/01 13:10:40;;;;;;;;;;;14.80;99.90;;;;;;5029710;28;19986;-75
2022/05/01 13:13:05;;;;;;;;;;;14.70;99.90;;;;;;5026235;28;19924;-74
2022/05/01 13:15:38;;;;;;;;;;;13.90;99.90;;;;;;5026174;28;20031;-75
2022/05/01 13:18:03;;;;;;;;;;;14.00;99.90;;;;;;5029647;28;19921;-76
2022/05/01 13:20:29;;;;;;;;;;;14.00;99.90;;;;;;5027507;28;19932;-76
2022/05/01 13:22:54;;;;;;;;;;;14.10;99.90;;;;;;5017597;28;19921;-75
2022/05/01 13:25:20;;;;;;;;;;;14.20;99.90;;;;;;5028618;28;20378;-75
2022/05/01 13:27:45;;;;;;;;;;;14.20;99.90;;;;;;5028841;28;19976;-75
2022/05/01 13:30:11;;;;;;;;;;;14.10;99.90;;;;;;5029092;28;20015;-75
2022/05/01 13:32:37;;;;;;;;;;;14.10;99.90;;;;;;5024513;28;19961;-75
2022/05/01 13:35:02;;;;;;;;;;;14.10;99.90;;;;;;5027205;28;20282;-74